BJX weather

Del Bajío International Airport
Silao, Guanajuato, Mexico

Public forecast

Using degrees Celsius for public forecast. Weather courtesy of forecast.io.

METAR (pilot weather report)

Retrieved 2019/04/25 05:40 UTC (2 hours ago):

MMLO 250540Z 31003KT 8SM SCT220 18/M01 A3020 RMK SLP077 52011 954 8/008

TAF (pilot weather forecast)

Retrieved 2019/04/25 06:05 UTC (2 hours ago):

TAF MMLO 250502Z 2506/2606 26005KT P6SM BKN250 FM251800 24010KT P6SM BKN250 FM260200 23005KT P6SM SCT250